sensor_id;sensor_type;location;lat;lon;timestamp;P1;durP1;ratioP1;P2;durP2;ratioP2
34072;SDS011;20346;52.702;16.886;2022-08-04T00:04:17;5.22;;;4.72;;
34072;SDS011;20346;52.702;16.886;2022-08-04T00:09:43;4.65;;;3.80;;
34072;SDS011;20346;52.702;16.886;2022-08-04T00:12:18;8.00;;;3.87;;
34072;SDS011;20346;52.702;16.886;2022-08-04T00:14:49;6.75;;;4.70;;
34072;SDS011;20346;52.702;16.886;2022-08-04T00:17:19;7.70;;;5.30;;
34072;SDS011;20346;52.702;16.886;2022-08-04T00:19:48;9.10;;;5.03;;
34072;SDS011;20346;52.702;16.886;2022-08-04T00:22:21;6.75;;;4.95;;
34072;SDS011;20346;52.702;16.886;2022-08-04T00:24:53;6.05;;;4.70;;
34072;SDS011;20346;52.702;16.886;2022-08-04T00:27:21;4.62;;;4.15;;
34072;SDS011;20346;52.702;16.886;2022-08-04T00:29:48;4.58;;;4.15;;
34072;SDS011;20346;52.702;16.886;2022-08-04T00:32:15;7.33;;;4.90;;
34072;SDS011;20346;52.702;16.886;2022-08-04T00:34:43;5.97;;;4.65;;
34072;SDS011;20346;52.702;16.886;2022-08-04T00:37:11;5.00;;;4.55;;
34072;SDS011;20346;52.702;16.886;2022-08-04T00:39:39;5.10;;;4.70;;
34072;SDS011;20346;52.702;16.886;2022-08-04T00:45:18;8.43;;;4.70;;
34072;SDS011;20346;52.702;16.886;2022-08-04T00:50:43;5.05;;;4.47;;
34072;SDS011;20346;52.702;16.886;2022-08-04T00:53:37;4.50;;;4.17;;
34072;SDS011;20346;52.702;16.886;2022-08-04T01:16:48;5.85;;;4.83;;
34072;SDS011;20346;52.702;16.886;2022-08-04T01:20:10;4.83;;;4.30;;
34072;SDS011;20346;52.702;16.886;2022-08-04T01:31:05;6.10;;;4.72;;
34072;SDS011;20346;52.702;16.886;2022-08-04T01:33:36;4.85;;;4.45;;
34072;SDS011;20346;52.702;16.886;2022-08-04T01:36:06;6.28;;;4.65;;
34072;SDS011;20346;52.702;16.886;2022-08-04T01:38:38;6.30;;;4.70;;
34072;SDS011;20346;52.702;16.886;2022-08-04T01:41:07;5.97;;;5.37;;
34072;SDS011;20346;52.702;16.886;2022-08-04T01:43:39;5.80;;;5.05;;
34072;SDS011;20346;52.702;16.886;2022-08-04T01:46:10;5.17;;;4.78;;
34072;SDS011;20346;52.702;16.886;2022-08-04T01:48:40;8.23;;;5.42;;
34072;SDS011;20346;52.702;16.886;2022-08-04T01:51:10;7.35;;;5.00;;
34072;SDS011;20346;52.702;16.886;2022-08-04T01:53:38;9.20;;;4.20;;
34072;SDS011;20346;52.702;16.886;2022-08-04T01:56:08;5.33;;;4.90;;
34072;SDS011;20346;52.702;16.886;2022-08-04T01:58:37;5.42;;;4.87;;
34072;SDS011;20346;52.702;16.886;2022-08-04T02:01:06;5.12;;;4.62;;
34072;SDS011;20346;52.702;16.886;2022-08-04T02:03:38;5.37;;;4.87;;
34072;SDS011;20346;52.702;16.886;2022-08-04T02:12:24;5.83;;;5.03;;
34072;SDS011;20346;52.702;16.886;2022-08-04T02:15:16;5.10;;;4.60;;
34072;SDS011;20346;52.702;16.886;2022-08-04T02:20:31;4.67;;;4.28;;
34072;SDS011;20346;52.702;16.886;2022-08-04T02:23:07;5.67;;;4.60;;
34072;SDS011;20346;52.702;16.886;2022-08-04T02:25:43;5.58;;;5.08;;
34072;SDS011;20346;52.702;16.886;2022-08-04T02:28:15;5.05;;;4.37;;
34072;SDS011;20346;52.702;16.886;2022-08-04T02:31:03;5.72;;;5.10;;
34072;SDS011;20346;52.702;16.886;2022-08-04T02:33:45;5.47;;;4.83;;
34072;SDS011;20346;52.702;16.886;2022-08-04T02:36:24;4.95;;;4.55;;
34072;SDS011;20346;52.702;16.886;2022-08-04T02:38:55;5.20;;;4.78;;
34072;SDS011;20346;52.702;16.886;2022-08-04T02:41:28;7.87;;;5.10;;
34072;SDS011;20346;52.702;16.886;2022-08-04T02:44:00;7.67;;;4.80;;
34072;SDS011;20346;52.702;16.886;2022-08-04T02:46:33;6.20;;;4.87;;
34072;SDS011;20346;52.702;16.886;2022-08-04T02:49:05;5.37;;;4.87;;
34072;SDS011;20346;52.702;16.886;2022-08-04T02:51:35;13.78;;;5.20;;
34072;SDS011;20346;52.702;16.886;2022-08-04T02:54:07;4.95;;;4.35;;
34072;SDS011;20346;52.702;16.886;2022-08-04T02:56:34;7.22;;;4.85;;
34072;SDS011;20346;52.702;16.886;2022-08-04T02:59:04;8.83;;;4.85;;
34072;SDS011;20346;52.702;16.886;2022-08-04T03:01:34;7.47;;;5.37;;
34072;SDS011;20346;52.702;16.886;2022-08-04T03:06:52;5.53;;;4.85;;
34072;SDS011;20346;52.702;16.886;2022-08-04T03:24:25;7.60;;;5.20;;
34072;SDS011;20346;52.702;16.886;2022-08-04T03:30:12;9.58;;;5.72;;
34072;SDS011;20346;52.702;16.886;2022-08-04T03:59:08;15.43;;;6.25;;
34072;SDS011;20346;52.702;16.886;2022-08-04T04:08:16;15.05;;;6.60;;
34072;SDS011;20346;52.702;16.886;2022-08-04T04:28:10;7.83;;;6.50;;
34072;SDS011;20346;52.702;16.886;2022-08-04T04:31:06;11.30;;;6.30;;
34072;SDS011;20346;52.702;16.886;2022-08-04T04:47:53;8.85;;;7.55;;
34072;SDS011;20346;52.702;16.886;2022-08-04T04:50:43;9.25;;;7.00;;
34072;SDS011;20346;52.702;16.886;2022-08-04T04:58:50;7.83;;;7.12;;
34072;SDS011;20346;52.702;16.886;2022-08-04T05:01:34;7.97;;;6.90;;
34072;SDS011;20346;52.702;16.886;2022-08-04T05:07:37;7.90;;;7.10;;
34072;SDS011;20346;52.702;16.886;2022-08-04T05:10:11;8.13;;;6.80;;
34072;SDS011;20346;52.702;16.886;2022-08-04T05:12:58;9.58;;;6.72;;
34072;SDS011;20346;52.702;16.886;2022-08-04T05:15:51;17.55;;;6.97;;
34072;SDS011;20346;52.702;16.886;2022-08-04T05:18:20;8.85;;;7.28;;
34072;SDS011;20346;52.702;16.886;2022-08-04T05:20:54;8.80;;;6.55;;
34072;SDS011;20346;52.702;16.886;2022-08-04T05:23:26;10.68;;;6.70;;
34072;SDS011;20346;52.702;16.886;2022-08-04T05:25:58;11.65;;;6.78;;
34072;SDS011;20346;52.702;16.886;2022-08-04T05:31:05;9.60;;;6.67;;
34072;SDS011;20346;52.702;16.886;2022-08-04T05:33:55;17.15;;;6.50;;
34072;SDS011;20346;52.702;16.886;2022-08-04T05:36:39;6.50;;;5.90;;
34072;SDS011;20346;52.702;16.886;2022-08-04T05:39:16;6.83;;;5.03;;
34072;SDS011;20346;52.702;16.886;2022-08-04T05:41:49;10.78;;;5.50;;
34072;SDS011;20346;52.702;16.886;2022-08-04T05:44:17;6.08;;;5.20;;
34072;SDS011;20346;52.702;16.886;2022-08-04T05:46:46;9.78;;;5.22;;
34072;SDS011;20346;52.702;16.886;2022-08-04T05:49:16;9.05;;;4.85;;
34072;SDS011;20346;52.702;16.886;2022-08-04T05:51:43;33.63;;;5.58;;
34072;SDS011;20346;52.702;16.886;2022-08-04T05:54:11;23.42;;;5.53;;
34072;SDS011;20346;52.702;16.886;2022-08-04T05:56:39;12.25;;;5.60;;
34072;SDS011;20346;52.702;16.886;2022-08-04T05:59:07;10.80;;;4.97;;
34072;SDS011;20346;52.702;16.886;2022-08-04T06:01:36;4.78;;;4.35;;
34072;SDS011;20346;52.702;16.886;2022-08-04T06:04:04;5.20;;;4.15;;
34072;SDS011;20346;52.702;16.886;2022-08-04T06:06:31;6.87;;;3.85;;
34072;SDS011;20346;52.702;16.886;2022-08-04T06:08:59;8.05;;;4.53;;
34072;SDS011;20346;52.702;16.886;2022-08-04T06:11:26;11.50;;;4.42;;
34072;SDS011;20346;52.702;16.886;2022-08-04T06:13:59;6.25;;;3.85;;
34072;SDS011;20346;52.702;16.886;2022-08-04T06:16:24;7.05;;;3.98;;
34072;SDS011;20346;52.702;16.886;2022-08-04T06:19:10;4.60;;;3.67;;
34072;SDS011;20346;52.702;16.886;2022-08-04T06:21:36;4.78;;;4.08;;
34072;SDS011;20346;52.702;16.886;2022-08-04T06:24:06;4.40;;;3.70;;
34072;SDS011;20346;52.702;16.886;2022-08-04T06:26:35;5.17;;;3.52;;
34072;SDS011;20346;52.702;16.886;2022-08-04T06:29:05;6.58;;;4.17;;
34072;SDS011;20346;52.702;16.886;2022-08-04T06:31:34;9.10;;;3.17;;
34072;SDS011;20346;52.702;16.886;2022-08-04T06:34:10;6.95;;;3.47;;
34072;SDS011;20346;52.702;16.886;2022-08-04T06:36:42;12.78;;;3.50;;
34072;SDS011;20346;52.702;16.886;2022-08-04T06:39:09;5.87;;;3.47;;
34072;SDS011;20346;52.702;16.886;2022-08-04T06:41:36;5.75;;;4.15;;
34072;SDS011;20346;52.702;16.886;2022-08-04T06:44:04;10.80;;;3.90;;
34072;SDS011;20346;52.702;16.886;2022-08-04T06:46:36;4.70;;;3.25;;
34072;SDS011;20346;52.702;16.886;2022-08-04T06:49:05;6.72;;;3.30;;
34072;SDS011;20346;52.702;16.886;2022-08-04T06:51:33;5.75;;;3.85;;
34072;SDS011;20346;52.702;16.886;2022-08-04T06:54:02;7.47;;;4.10;;
34072;SDS011;20346;52.702;16.886;2022-08-04T06:56:30;6.00;;;3.70;;
34072;SDS011;20346;52.702;16.886;2022-08-04T06:58:59;10.03;;;3.75;;
34072;SDS011;20346;52.702;16.886;2022-08-04T07:01:28;5.30;;;3.75;;
34072;SDS011;20346;52.702;16.886;2022-08-04T07:03:56;6.30;;;3.60;;
34072;SDS011;20346;52.702;16.886;2022-08-04T07:06:23;6.45;;;3.65;;
34072;SDS011;20346;52.702;16.886;2022-08-04T07:08:50;8.65;;;3.50;;
34072;SDS011;20346;52.702;16.886;2022-08-04T07:11:18;6.17;;;3.25;;
34072;SDS011;20346;52.702;16.886;2022-08-04T07:13:46;5.53;;;3.80;;
34072;SDS011;20346;52.702;16.886;2022-08-04T07:16:14;11.33;;;3.55;;
34072;SDS011;20346;52.702;16.886;2022-08-04T07:18:42;10.88;;;3.50;;
34072;SDS011;20346;52.702;16.886;2022-08-04T07:21:09;6.83;;;4.30;;
34072;SDS011;20346;52.702;16.886;2022-08-04T07:23:36;3.67;;;3.30;;
34072;SDS011;20346;52.702;16.886;2022-08-04T07:26:02;6.37;;;3.70;;
34072;SDS011;20346;52.702;16.886;2022-08-04T07:28:30;4.08;;;3.45;;
34072;SDS011;20346;52.702;16.886;2022-08-04T07:30:56;5.25;;;3.35;;
34072;SDS011;20346;52.702;16.886;2022-08-04T07:33:23;7.83;;;4.10;;
34072;SDS011;20346;52.702;16.886;2022-08-04T07:35:52;3.40;;;3.05;;
34072;SDS011;20346;52.702;16.886;2022-08-04T07:38:20;7.55;;;3.35;;
34072;SDS011;20346;52.702;16.886;2022-08-04T07:40:46;4.10;;;3.47;;
34072;SDS011;20346;52.702;16.886;2022-08-04T07:43:14;4.97;;;2.60;;
34072;SDS011;20346;52.702;16.886;2022-08-04T07:45:41;6.10;;;3.42;;
34072;SDS011;20346;52.702;16.886;2022-08-04T07:48:08;6.03;;;2.92;;
34072;SDS011;20346;52.702;16.886;2022-08-04T07:50:36;3.30;;;2.65;;
34072;SDS011;20346;52.702;16.886;2022-08-04T07:53:05;5.50;;;3.22;;
34072;SDS011;20346;52.702;16.886;2022-08-04T07:55:32;7.10;;;2.95;;
34072;SDS011;20346;52.702;16.886;2022-08-04T07:57:59;5.08;;;2.45;;
34072;SDS011;20346;52.702;16.886;2022-08-04T08:00:25;3.62;;;2.67;;
34072;SDS011;20346;52.702;16.886;2022-08-04T08:02:52;3.70;;;2.75;;
34072;SDS011;20346;52.702;16.886;2022-08-04T08:05:20;4.45;;;2.60;;
34072;SDS011;20346;52.702;16.886;2022-08-04T08:07:48;2.80;;;2.58;;
34072;SDS011;20346;52.702;16.886;2022-08-04T08:10:16;3.90;;;2.85;;
34072;SDS011;20346;52.702;16.886;2022-08-04T08:12:42;2.55;;;2.08;;
34072;SDS011;20346;52.702;16.886;2022-08-04T08:15:09;3.52;;;2.40;;
34072;SDS011;20346;52.702;16.886;2022-08-04T08:17:39;5.12;;;2.30;;
34072;SDS011;20346;52.702;16.886;2022-08-04T08:20:06;3.12;;;2.20;;
34072;SDS011;20346;52.702;16.886;2022-08-04T08:22:37;4.00;;;2.22;;
34072;SDS011;20346;52.702;16.886;2022-08-04T08:25:05;3.25;;;2.00;;
34072;SDS011;20346;52.702;16.886;2022-08-04T08:27:33;2.90;;;2.10;;
34072;SDS011;20346;52.702;16.886;2022-08-04T08:30:02;2.15;;;2.00;;
34072;SDS011;20346;52.702;16.886;2022-08-04T08:32:30;2.47;;;2.12;;
34072;SDS011;20346;52.702;16.886;2022-08-04T08:34:56;2.72;;;2.12;;
34072;SDS011;20346;52.702;16.886;2022-08-04T08:52:20;7.28;;;2.12;;
34072;SDS011;20346;52.702;16.886;2022-08-04T08:58:30;2.65;;;2.42;;
34072;SDS011;20346;52.702;16.886;2022-08-04T09:00:51;8.20;;;2.85;;
34072;SDS011;20346;52.702;16.886;2022-08-04T09:03:50;4.40;;;2.30;;
34072;SDS011;20346;52.702;16.886;2022-08-04T09:14:44;2.72;;;2.35;;
34072;SDS011;20346;52.702;16.886;2022-08-04T09:17:34;2.33;;;1.70;;
34072;SDS011;20346;52.702;16.886;2022-08-04T09:20:06;3.35;;;2.02;;
34072;SDS011;20346;52.702;16.886;2022-08-04T09:22:38;4.22;;;2.15;;
34072;SDS011;20346;52.702;16.886;2022-08-04T09:25:21;6.22;;;2.17;;
34072;SDS011;20346;52.702;16.886;2022-08-04T09:27:59;5.17;;;2.27;;
34072;SDS011;20346;52.702;16.886;2022-08-04T09:30:58;3.42;;;2.10;;
34072;SDS011;20346;52.702;16.886;2022-08-04T09:42:08;5.20;;;2.25;;
34072;SDS011;20346;52.702;16.886;2022-08-04T09:47:52;6.37;;;2.00;;
34072;SDS011;20346;52.702;16.886;2022-08-04T09:50:43;4.58;;;2.12;;
34072;SDS011;20346;52.702;16.886;2022-08-04T09:53:19;3.87;;;2.33;;
34072;SDS011;20346;52.702;16.886;2022-08-04T09:56:07;2.25;;;2.10;;
34072;SDS011;20346;52.702;16.886;2022-08-04T10:01:33;8.80;;;2.83;;
34072;SDS011;20346;52.702;16.886;2022-08-04T10:04:02;9.65;;;2.47;;
34072;SDS011;20346;52.702;16.886;2022-08-04T10:06:47;2.70;;;2.17;;
34072;SDS011;20346;52.702;16.886;2022-08-04T10:09:49;6.20;;;2.50;;
34072;SDS011;20346;52.702;16.886;2022-08-04T10:19:14;8.35;;;2.37;;
34072;SDS011;20346;52.702;16.886;2022-08-04T10:27:35;5.08;;;2.70;;
34072;SDS011;20346;52.702;16.886;2022-08-04T10:30:06;2.83;;;2.62;;
34072;SDS011;20346;52.702;16.886;2022-08-04T10:35:48;4.22;;;2.67;;
34072;SDS011;20346;52.702;16.886;2022-08-04T10:38:29;4.45;;;2.58;;
34072;SDS011;20346;52.702;16.886;2022-08-04T10:41:12;3.13;;;2.50;;
34072;SDS011;20346;52.702;16.886;2022-08-04T10:44:16;3.05;;;2.45;;
34072;SDS011;20346;52.702;16.886;2022-08-04T10:47:03;4.70;;;2.35;;
34072;SDS011;20346;52.702;16.886;2022-08-04T10:55:10;4.97;;;2.30;;
34072;SDS011;20346;52.702;16.886;2022-08-04T10:57:49;4.60;;;2.85;;
34072;SDS011;20346;52.702;16.886;2022-08-04T11:00:28;3.52;;;2.40;;
34072;SDS011;20346;52.702;16.886;2022-08-04T11:05:44;2.72;;;2.50;;
34072;SDS011;20346;52.702;16.886;2022-08-04T11:11:09;4.55;;;2.55;;
34072;SDS011;20346;52.702;16.886;2022-08-04T11:13:58;3.52;;;2.20;;
34072;SDS011;20346;52.702;16.886;2022-08-04T11:19:33;7.03;;;2.60;;
34072;SDS011;20346;52.702;16.886;2022-08-04T11:22:14;6.05;;;2.50;;
34072;SDS011;20346;52.702;16.886;2022-08-04T11:27:42;5.15;;;2.72;;
34072;SDS011;20346;52.702;16.886;2022-08-04T11:30:29;5.55;;;2.90;;
34072;SDS011;20346;52.702;16.886;2022-08-04T11:35:49;8.80;;;2.77;;
34072;SDS011;20346;52.702;16.886;2022-08-04T11:38:26;5.33;;;2.62;;
34072;SDS011;20346;52.702;16.886;2022-08-04T11:41:09;2.85;;;2.50;;
34072;SDS011;20346;52.702;16.886;2022-08-04T11:43:54;4.53;;;2.67;;
34072;SDS011;20346;52.702;16.886;2022-08-04T11:46:29;3.62;;;2.55;;
34072;SDS011;20346;52.702;16.886;2022-08-04T11:51:42;4.53;;;2.40;;
34072;SDS011;20346;52.702;16.886;2022-08-04T11:54:10;2.95;;;2.65;;
34072;SDS011;20346;52.702;16.886;2022-08-04T11:56:37;4.87;;;2.70;;
34072;SDS011;20346;52.702;16.886;2022-08-04T11:59:09;6.70;;;2.83;;
34072;SDS011;20346;52.702;16.886;2022-08-04T12:01:46;4.60;;;2.90;;
34072;SDS011;20346;52.702;16.886;2022-08-04T12:04:36;4.60;;;3.02;;
34072;SDS011;20346;52.702;16.886;2022-08-04T12:19:12;2.55;;;2.35;;
34072;SDS011;20346;52.702;16.886;2022-08-04T12:21:53;7.10;;;3.37;;
34072;SDS011;20346;52.702;16.886;2022-08-04T12:27:12;4.67;;;3.02;;
34072;SDS011;20346;52.702;16.886;2022-08-04T12:29:42;6.83;;;2.65;;
34072;SDS011;20346;52.702;16.886;2022-08-04T12:32:25;3.10;;;2.80;;
34072;SDS011;20346;52.702;16.886;2022-08-04T12:37:49;3.75;;;2.80;;
34072;SDS011;20346;52.702;16.886;2022-08-04T12:43:28;4.28;;;3.27;;
34072;SDS011;20346;52.702;16.886;2022-08-04T12:46:09;4.15;;;2.70;;
34072;SDS011;20346;52.702;16.886;2022-08-04T12:48:48;3.12;;;2.83;;
34072;SDS011;20346;52.702;16.886;2022-08-04T12:51:16;2.75;;;2.55;;
34072;SDS011;20346;52.702;16.886;2022-08-04T12:53:45;2.90;;;2.58;;
34072;SDS011;20346;52.702;16.886;2022-08-04T12:56:13;2.90;;;2.70;;
34072;SDS011;20346;52.702;16.886;2022-08-04T12:58:46;6.80;;;3.05;;
34072;SDS011;20346;52.702;16.886;2022-08-04T13:01:19;3.40;;;3.10;;
34072;SDS011;20346;52.702;16.886;2022-08-04T13:06:37;9.90;;;3.45;;
34072;SDS011;20346;52.702;16.886;2022-08-04T13:09:12;4.42;;;3.30;;
34072;SDS011;20346;52.702;16.886;2022-08-04T13:11:43;3.42;;;3.22;;
34072;SDS011;20346;52.702;16.886;2022-08-04T13:14:15;4.08;;;3.08;;
34072;SDS011;20346;52.702;16.886;2022-08-04T13:16:44;4.35;;;2.98;;
34072;SDS011;20346;52.702;16.886;2022-08-04T13:19:11;4.30;;;2.75;;
34072;SDS011;20346;52.702;16.886;2022-08-04T13:21:42;7.37;;;3.25;;
34072;SDS011;20346;52.702;16.886;2022-08-04T13:24:12;4.65;;;3.02;;
34072;SDS011;20346;52.702;16.886;2022-08-04T13:29:33;6.08;;;3.60;;
34072;SDS011;20346;52.702;16.886;2022-08-04T13:32:19;7.22;;;3.58;;
34072;SDS011;20346;52.702;16.886;2022-08-04T13:37:19;13.15;;;3.52;;
34072;SDS011;20346;52.702;16.886;2022-08-04T13:39:53;9.88;;;3.55;;
34072;SDS011;20346;52.702;16.886;2022-08-04T13:42:23;4.97;;;3.62;;
34072;SDS011;20346;52.702;16.886;2022-08-04T13:44:56;4.17;;;3.50;;
34072;SDS011;20346;52.702;16.886;2022-08-04T13:47:26;7.72;;;3.40;;
34072;SDS011;20346;52.702;16.886;2022-08-04T13:52:55;6.17;;;4.00;;
34072;SDS011;20346;52.702;16.886;2022-08-04T13:55:26;5.50;;;4.20;;
34072;SDS011;20346;52.702;16.886;2022-08-04T14:00:59;4.22;;;3.80;;
34072;SDS011;20346;52.702;16.886;2022-08-04T14:03:33;6.25;;;3.83;;
34072;SDS011;20346;52.702;16.886;2022-08-04T14:06:12;5.17;;;3.95;;
34072;SDS011;20346;52.702;16.886;2022-08-04T14:08:57;8.85;;;4.45;;
34072;SDS011;20346;52.702;16.886;2022-08-04T14:11:37;8.25;;;4.20;;
34072;SDS011;20346;52.702;16.886;2022-08-04T14:14:14;4.83;;;3.98;;
34072;SDS011;20346;52.702;16.886;2022-08-04T14:16:56;4.55;;;4.12;;
34072;SDS011;20346;52.702;16.886;2022-08-04T14:19:26;9.30;;;3.95;;
34072;SDS011;20346;52.702;16.886;2022-08-04T14:21:56;5.20;;;4.50;;
34072;SDS011;20346;52.702;16.886;2022-08-04T14:24:27;6.87;;;4.35;;
34072;SDS011;20346;52.702;16.886;2022-08-04T14:26:57;4.80;;;4.40;;
34072;SDS011;20346;52.702;16.886;2022-08-04T14:29:25;4.55;;;4.15;;
34072;SDS011;20346;52.702;16.886;2022-08-04T14:32:03;8.25;;;3.80;;
34072;SDS011;20346;52.702;16.886;2022-08-04T14:34:36;7.33;;;3.75;;
34072;SDS011;20346;52.702;16.886;2022-08-04T14:37:07;10.65;;;3.80;;
34072;SDS011;20346;52.702;16.886;2022-08-04T14:39:36;6.90;;;3.87;;
34072;SDS011;20346;52.702;16.886;2022-08-04T14:42:06;8.60;;;4.35;;
34072;SDS011;20346;52.702;16.886;2022-08-04T14:44:53;5.37;;;4.80;;
34072;SDS011;20346;52.702;16.886;2022-08-04T14:50:12;5.35;;;3.83;;
34072;SDS011;20346;52.702;16.886;2022-08-04T14:52:39;5.92;;;4.08;;
34072;SDS011;20346;52.702;16.886;2022-08-04T14:55:19;12.20;;;5.60;;
34072;SDS011;20346;52.702;16.886;2022-08-04T14:57:48;5.55;;;4.08;;
34072;SDS011;20346;52.702;16.886;2022-08-04T15:00:27;5.92;;;4.40;;
34072;SDS011;20346;52.702;16.886;2022-08-04T15:02:53;9.05;;;3.90;;
34072;SDS011;20346;52.702;16.886;2022-08-04T15:05:35;5.12;;;4.72;;
34072;SDS011;20346;52.702;16.886;2022-08-04T15:08:05;8.63;;;4.55;;
34072;SDS011;20346;52.702;16.886;2022-08-04T15:10:32;4.50;;;4.20;;
34072;SDS011;20346;52.702;16.886;2022-08-04T15:13:02;7.33;;;4.20;;
34072;SDS011;20346;52.702;16.886;2022-08-04T15:15:29;7.47;;;4.22;;
34072;SDS011;20346;52.702;16.886;2022-08-04T15:17:56;4.28;;;3.87;;
34072;SDS011;20346;52.702;16.886;2022-08-04T15:20:24;4.47;;;3.75;;
34072;SDS011;20346;52.702;16.886;2022-08-04T15:22:51;8.08;;;4.10;;
34072;SDS011;20346;52.702;16.886;2022-08-04T15:25:17;4.60;;;4.15;;
34072;SDS011;20346;52.702;16.886;2022-08-04T15:27:45;5.85;;;4.60;;
34072;SDS011;20346;52.702;16.886;2022-08-04T15:30:14;10.25;;;4.55;;
34072;SDS011;20346;52.702;16.886;2022-08-04T15:32:46;4.22;;;3.80;;
34072;SDS011;20346;52.702;16.886;2022-08-04T15:35:20;5.75;;;5.17;;
34072;SDS011;20346;52.702;16.886;2022-08-04T15:40:47;10.60;;;4.83;;
34072;SDS011;20346;52.702;16.886;2022-08-04T15:47:16;8.05;;;4.65;;
34072;SDS011;20346;52.702;16.886;2022-08-04T15:49:37;10.43;;;4.92;;
34072;SDS011;20346;52.702;16.886;2022-08-04T15:52:07;11.03;;;4.58;;
34072;SDS011;20346;52.702;16.886;2022-08-04T15:54:40;6.97;;;4.30;;
34072;SDS011;20346;52.702;16.886;2022-08-04T15:57:07;7.75;;;4.50;;
34072;SDS011;20346;52.702;16.886;2022-08-04T16:10:41;5.42;;;4.20;;
34072;SDS011;20346;52.702;16.886;2022-08-04T16:13:08;5.42;;;4.92;;
34072;SDS011;20346;52.702;16.886;2022-08-04T16:15:49;5.87;;;4.60;;
34072;SDS011;20346;52.702;16.886;2022-08-04T16:21:01;5.50;;;4.58;;
34072;SDS011;20346;52.702;16.886;2022-08-04T16:32:06;6.08;;;4.20;;
34072;SDS011;20346;52.702;16.886;2022-08-04T16:37:32;8.45;;;4.95;;
34072;SDS011;20346;52.702;16.886;2022-08-04T16:43:07;5.05;;;4.58;;
34072;SDS011;20346;52.702;16.886;2022-08-04T16:48:29;4.70;;;4.17;;
34072;SDS011;20346;52.702;16.886;2022-08-04T16:51:02;5.60;;;4.33;;
34072;SDS011;20346;52.702;16.886;2022-08-04T16:53:43;8.93;;;4.95;;
34072;SDS011;20346;52.702;16.886;2022-08-04T16:56:13;5.40;;;4.15;;
34072;SDS011;20346;52.702;16.886;2022-08-04T16:58:43;4.83;;;4.42;;
34072;SDS011;20346;52.702;16.886;2022-08-04T17:01:12;7.58;;;4.15;;
34072;SDS011;20346;52.702;16.886;2022-08-04T17:03:51;4.35;;;4.03;;
34072;SDS011;20346;52.702;16.886;2022-08-04T17:06:20;16.27;;;4.37;;
34072;SDS011;20346;52.702;16.886;2022-08-04T17:08:47;7.17;;;4.33;;
34072;SDS011;20346;52.702;16.886;2022-08-04T17:11:14;4.70;;;4.00;;
34072;SDS011;20346;52.702;16.886;2022-08-04T17:13:42;11.20;;;4.55;;
34072;SDS011;20346;52.702;16.886;2022-08-04T17:16:12;4.50;;;4.10;;
34072;SDS011;20346;52.702;16.886;2022-08-04T17:18:45;9.65;;;4.37;;
34072;SDS011;20346;52.702;16.886;2022-08-04T17:21:47;11.15;;;4.72;;
34072;SDS011;20346;52.702;16.886;2022-08-04T17:23:58;5.62;;;4.62;;
34072;SDS011;20346;52.702;16.886;2022-08-04T17:26:28;5.87;;;4.30;;
34072;SDS011;20346;52.702;16.886;2022-08-04T17:28:57;4.03;;;3.72;;
34072;SDS011;20346;52.702;16.886;2022-08-04T17:31:26;6.60;;;4.40;;
34072;SDS011;20346;52.702;16.886;2022-08-04T17:33:55;8.60;;;4.50;;
34072;SDS011;20346;52.702;16.886;2022-08-04T17:36:25;6.37;;;4.10;;
34072;SDS011;20346;52.702;16.886;2022-08-04T17:38:56;4.83;;;4.37;;
34072;SDS011;20346;52.702;16.886;2022-08-04T17:41:26;4.62;;;4.28;;
34072;SDS011;20346;52.702;16.886;2022-08-04T17:46:37;11.28;;;3.83;;
34072;SDS011;20346;52.702;16.886;2022-08-04T17:49:09;6.40;;;4.35;;
34072;SDS011;20346;52.702;16.886;2022-08-04T17:51:45;23.90;;;5.20;;
34072;SDS011;20346;52.702;16.886;2022-08-04T17:56:57;5.37;;;4.40;;
34072;SDS011;20346;52.702;16.886;2022-08-04T18:02:11;6.15;;;4.83;;
34072;SDS011;20346;52.702;16.886;2022-08-04T18:04:39;9.53;;;4.47;;
34072;SDS011;20346;52.702;16.886;2022-08-04T18:10:01;4.40;;;4.00;;
34072;SDS011;20346;52.702;16.886;2022-08-04T18:15:06;4.30;;;3.98;;
34072;SDS011;20346;52.702;16.886;2022-08-04T18:17:32;4.90;;;4.50;;
34072;SDS011;20346;52.702;16.886;2022-08-04T18:20:07;5.35;;;4.40;;
34072;SDS011;20346;52.702;16.886;2022-08-04T18:22:38;9.08;;;4.03;;
34072;SDS011;20346;52.702;16.886;2022-08-04T18:25:08;5.45;;;4.15;;
34072;SDS011;20346;52.702;16.886;2022-08-04T18:27:50;8.45;;;4.55;;
34072;SDS011;20346;52.702;16.886;2022-08-04T18:30:20;10.63;;;4.35;;
34072;SDS011;20346;52.702;16.886;2022-08-04T18:32:49;4.92;;;4.53;;
34072;SDS011;20346;52.702;16.886;2022-08-04T18:35:18;5.45;;;4.37;;
34072;SDS011;20346;52.702;16.886;2022-08-04T18:37:44;5.03;;;4.62;;
34072;SDS011;20346;52.702;16.886;2022-08-04T18:42:38;5.25;;;4.60;;
34072;SDS011;20346;52.702;16.886;2022-08-04T18:45:05;5.87;;;4.75;;
34072;SDS011;20346;52.702;16.886;2022-08-04T18:47:34;5.35;;;4.72;;
34072;SDS011;20346;52.702;16.886;2022-08-04T18:50:00;5.03;;;4.62;;
34072;SDS011;20346;52.702;16.886;2022-08-04T18:52:27;5.00;;;4.42;;
34072;SDS011;20346;52.702;16.886;2022-08-04T18:54:53;6.92;;;4.60;;
34072;SDS011;20346;52.702;16.886;2022-08-04T18:57:20;5.33;;;4.75;;
34072;SDS011;20346;52.702;16.886;2022-08-04T18:59:49;7.80;;;4.53;;
34072;SDS011;20346;52.702;16.886;2022-08-04T19:02:16;6.72;;;4.33;;
34072;SDS011;20346;52.702;16.886;2022-08-04T19:04:43;7.20;;;4.90;;
34072;SDS011;20346;52.702;16.886;2022-08-04T19:09:38;8.53;;;5.08;;
34072;SDS011;20346;52.702;16.886;2022-08-04T19:12:06;9.93;;;5.03;;
34072;SDS011;20346;52.702;16.886;2022-08-04T19:14:33;9.95;;;4.95;;
34072;SDS011;20346;52.702;16.886;2022-08-04T19:17:00;11.57;;;4.92;;
34072;SDS011;20346;52.702;16.886;2022-08-04T19:19:26;12.03;;;4.83;;
34072;SDS011;20346;52.702;16.886;2022-08-04T19:24:19;9.53;;;4.78;;
34072;SDS011;20346;52.702;16.886;2022-08-04T19:26:48;8.40;;;5.17;;
34072;SDS011;20346;52.702;16.886;2022-08-04T19:29:15;12.25;;;4.80;;
34072;SDS011;20346;52.702;16.886;2022-08-04T19:31:42;9.40;;;4.35;;
34072;SDS011;20346;52.702;16.886;2022-08-04T19:34:09;11.08;;;5.17;;
34072;SDS011;20346;52.702;16.886;2022-08-04T19:36:35;7.92;;;5.28;;
34072;SDS011;20346;52.702;16.886;2022-08-04T19:39:04;9.68;;;4.60;;
34072;SDS011;20346;52.702;16.886;2022-08-04T19:41:33;14.87;;;4.28;;
34072;SDS011;20346;52.702;16.886;2022-08-04T19:44:05;11.03;;;4.25;;
34072;SDS011;20346;52.702;16.886;2022-08-04T19:46:29;12.85;;;4.87;;
34072;SDS011;20346;52.702;16.886;2022-08-04T19:48:56;13.13;;;4.65;;
34072;SDS011;20346;52.702;16.886;2022-08-04T19:51:23;11.57;;;4.53;;
34072;SDS011;20346;52.702;16.886;2022-08-04T19:53:49;5.85;;;4.78;;
34072;SDS011;20346;52.702;16.886;2022-08-04T19:56:15;6.85;;;4.90;;
34072;SDS011;20346;52.702;16.886;2022-08-04T19:58:42;8.18;;;4.35;;
34072;SDS011;20346;52.702;16.886;2022-08-04T20:01:08;4.45;;;4.15;;
34072;SDS011;20346;52.702;16.886;2022-08-04T20:03:37;8.30;;;5.58;;
34072;SDS011;20346;52.702;16.886;2022-08-04T20:06:03;11.03;;;4.87;;
34072;SDS011;20346;52.702;16.886;2022-08-04T20:08:30;5.80;;;3.92;;
34072;SDS011;20346;52.702;16.886;2022-08-04T20:10:57;4.95;;;4.55;;
34072;SDS011;20346;52.702;16.886;2022-08-04T20:13:24;8.35;;;4.58;;
34072;SDS011;20346;52.702;16.886;2022-08-04T20:15:51;7.40;;;4.95;;
34072;SDS011;20346;52.702;16.886;2022-08-04T20:18:18;8.58;;;4.28;;
34072;SDS011;20346;52.702;16.886;2022-08-04T20:23:10;5.47;;;4.50;;
34072;SDS011;20346;52.702;16.886;2022-08-04T20:25:37;9.73;;;4.58;;
34072;SDS011;20346;52.702;16.886;2022-08-04T20:28:03;8.43;;;4.80;;